Time;durP1;ratioP1;P1;durP2;ratioP2;P2;SDS_P1;SDS_P2;PMS_P1;PMS_P2;Temp;Humidity;BMP_temperature;BMP_pressure;BME280_temperature;BME280_humidity;BME280_pressure;Samples;Min_cycle;Max_cycle;Signal;HPM_P1;HPM_P2
2021/09/27 00:01:16;;;;;;;6.57;5.00;;;;;;;22.16;47.60;94748.27;827228;71;32741;-75
2021/09/27 00:16:10;;;;;;;6.37;5.78;;;;;;;22.10;47.68;94749.69;828302;71;29748;-76
2021/09/27 00:31:08;;;;;;;6.53;5.20;;;;;;;22.05;47.70;94745.19;828255;71;29694;-76
2021/09/27 00:46:13;;;;;;;6.25;5.75;;;;;;;21.94;47.84;94740.99;829047;71;29667;-76
2021/09/27 01:16:31;;;;;;;5.50;5.10;;;;;;;21.86;47.94;94714.70;833940;71;29750;-76
2021/09/27 01:31:12;;;;;;;6.62;6.03;;;;;;;21.84;48.11;94708.14;833987;71;29685;-77
2021/09/27 01:46:35;;;;;;;6.47;5.83;;;;;;;21.75;48.33;94708.38;828193;71;30190;-76
2021/09/27 02:01:17;;;;;;;8.90;5.65;;;;;;;21.64;48.61;94715.43;819088;71;33087;-75
2021/09/27 02:16:29;;;;;;;6.10;5.60;;;;;;;21.62;48.58;94708.33;829092;71;30117;-74
2021/09/27 02:31:39;;;;;;;6.58;5.95;;;;;;;21.54;48.75;94701.51;810432;72;32759;-76
2021/09/27 02:46:44;;;;;;;6.85;6.25;;;;;;;19.26;52.92;94709.02;835499;71;27045;-75
2021/09/27 03:16:26;;;;;;;8.55;7.12;;;;;;;17.13;60.07;94699.33;828470;71;32026;-76
2021/09/27 03:31:55;;;;;;;7.70;7.00;;;;;;;16.51;62.14;94689.41;779903;75;33003;-76
2021/09/27 04:01:17;;;;;;;15.53;13.98;;;;;;;16.52;71.48;94678.47;827083;71;32712;-75
2021/09/27 04:31:34;;;;;;;9.25;8.20;;;;;;;16.06;65.23;94696.52;828100;71;29701;-75
2021/09/27 04:46:21;;;;;;;10.45;9.30;;;;;;;16.05;66.06;94679.09;827995;71;30232;-77
2021/09/27 10:46:10;;;;;;;7.80;7.00;;;;;;;30.01;31.28;94555.84;828062;71;30778;-75
2021/09/27 11:01:34;;;;;;;8.60;6.80;;;;;;;29.98;33.03;94540.42;827796;71;32763;-78
2021/09/27 11:16:18;;;;;;;7.97;7.17;;;;;;;30.26;32.94;94519.45;828031;71;31929;-76
2021/09/27 11:31:47;;;;;;;7.77;6.97;;;;;;;29.91;32.86;94500.72;828112;71;30064;-76
2021/09/27 11:46:21;;;;;;;7.23;6.43;;;;;;;29.76;33.42;94485.89;828434;71;29802;-75
2021/09/27 12:01:25;;;;;;;7.10;6.47;;;;;;;30.42;32.74;94487.08;834632;71;32734;-75
2021/09/27 12:16:15;;;;;;;7.10;6.57;;;;;;;30.46;31.74;94467.45;828122;71;29686;-76
2021/09/27 12:31:12;;;;;;;7.17;6.57;;;;;;;29.68;32.58;94462.80;828910;71;31996;-77
2021/09/27 12:46:20;;;;;;;7.43;6.63;;;;;;;29.70;32.81;94455.05;834440;71;29765;-76
2021/09/27 13:01:11;;;;;;;6.47;5.73;;;;;;;29.07;33.14;94441.50;833909;71;30379;-75
2021/09/27 13:16:14;;;;;;;7.40;6.70;;;;;;;28.79;33.24;94437.84;833923;71;29691;-75
2021/09/27 13:46:33;;;;;;;8.63;7.53;;;;;;;28.47;33.14;94403.33;787680;75;33445;-76
2021/09/27 14:01:08;;;;;;;8.47;7.67;;;;;;;28.25;33.11;94397.42;828180;71;29844;-74
2021/09/27 14:16:49;;;;;;;10.60;8.63;;;;;;;28.04;32.61;94389.56;822841;69;32856;-76
2021/09/27 14:31:10;;;;;;;12.80;8.90;;;;;;;27.93;32.48;94383.70;828028;71;31039;-76
2021/09/27 14:46:08;;;;;;;10.40;8.30;;;;;;;27.55;34.50;94373.47;828927;71;29780;-75
2021/09/27 15:16:33;;;;;;;11.10;9.60;;;;;;;26.53;39.17;94371.88;766385;76;33049;-76
2021/09/27 15:31:15;;;;;;;10.70;9.57;;;;;;;26.09;41.65;94372.64;824201;71;32744;-75
2021/09/27 15:46:49;;;;;;;14.17;9.60;;;;;;;25.62;43.21;94387.36;833992;71;30298;-76
2021/09/27 16:01:10;;;;;;;12.63;10.50;;;;;;;24.76;43.52;94406.31;828070;71;30298;-77
2021/09/27 16:16:54;;;;;;;18.10;11.33;;;;;;;24.18;45.89;94418.73;833967;71;30799;-75
2021/09/27 17:31:54;;;;;;;14.30;10.07;;;;;;;22.20;50.55;94432.88;834318;71;31784;-79
2021/09/27 17:46:10;;;;;;;12.90;10.50;;;;;;;21.93;51.57;94446.85;827955;71;29261;-78
2021/09/27 18:16:10;;;;;;;15.00;11.30;;;;;;;21.34;53.32;94461.02;828401;71;28771;-78
2021/09/27 18:31:09;;;;;;;14.30;10.90;;;;;;;21.12;53.46;94470.57;829467;71;28631;-81
2021/09/27 18:46:09;;;;;;;15.13;10.90;;;;;;;20.91;54.01;94474.41;830064;71;28747;-78
2021/09/27 19:01:14;;;;;;;14.80;12.18;;;;;;;20.68;54.49;94467.71;828877;70;31763;-80
2021/09/27 19:16:14;;;;;;;13.20;11.70;;;;;;;20.48;55.01;94457.59;828038;71;31886;-78
2021/09/27 19:31:18;;;;;;;15.23;10.38;;;;;;;20.23;55.69;94462.41;827377;71;31712;-77
2021/09/27 19:46:15;;;;;;;12.58;10.05;;;;;;;20.13;55.91;94470.95;827438;71;32180;-77
2021/09/27 20:01:29;;;;;;;13.10;11.80;;;;;;;20.06;56.57;94486.23;834266;71;31824;-84
2021/09/27 20:46:34;;;;;;;13.83;12.45;;;;;;;20.06;66.80;94640.74;801708;74;31950;-78
2021/09/27 21:16:15;;;;;;;11.53;10.53;;;;;;;19.43;68.83;94636.09;833538;71;31804;-79
2021/09/27 21:31:09;;;;;;;13.25;11.95;;;;;;;19.06;70.37;94630.94;828099;71;28674;-80
2021/09/27 21:46:15;;;;;;;14.28;12.78;;;;;;;18.71;73.06;94619.45;826923;71;31795;-77
2021/09/27 22:31:08;;;;;;;14.20;11.45;;;;;;;18.01;77.43;94502.27;833596;71;28726;-77
2021/09/27 22:46:53;;;;;;;13.10;11.90;;;;;;;18.36;77.88;94515.02;833479;71;31777;-80
2021/09/27 23:01:14;;;;;;;13.93;12.58;;;;;;;18.55;77.06;94530.38;827114;71;31749;-77
2021/09/27 23:31:15;;;;;;;19.95;15.58;;;;;;;18.40;78.52;94584.21;827118;71;31761;-77
